Time;durP1;ratioP1;P1;durP2;ratioP2;P2;SDS_P1;SDS_P2;PMS_P1;PMS_P2;Temp;Humidity;BMP_temperature;BMP_pressure;BME280_temperature;BME280_humidity;BME280_pressure;Samples;Min_cycle;Max_cycle;Signal;HPM_P1;HPM_P2
2022/01/29 00:00:25;;;;;;;31.92;16.58;;;1.00;99.90;;;;;;6184951;23;20455;-90
2022/01/29 00:03:45;;;;;;;;;;;;;;;;;;;;;
2022/01/29 00:07:00;;;;;;;27.30;15.52;;;0.80;99.90;;;;;;6185570;23;20052;-88
2022/01/29 00:10:02;;;;;;;35.58;15.70;;;0.80;99.90;;;;;;6164639;23;20107;-89
2022/01/29 00:13:39;;;;;;;;;;;;;;;;;;;;;
2022/01/29 00:16:31;;;;;;;22.58;13.90;;;1.00;99.90;;;;;;6188294;23;20416;-89
2022/01/29 00:19:54;;;;;;;26.05;13.48;;;0.90;99.90;;;;;;6185567;23;20021;-90
2022/01/29 00:22:55;;;;;;;31.48;14.63;;;1.00;99.90;;;;;;6186947;23;20029;-90
2022/01/29 00:26:31;;;;;;;25.17;14.95;;;1.00;99.90;;;;;;6179833;23;20087;-89
2022/01/29 00:29:30;;;;;;;22.80;14.07;;;1.00;99.90;;;;;;6184930;23;20025;-89
2022/01/29 00:32:24;;;;;;;28.58;13.45;;;0.90;99.90;;;;;;6168304;23;20037;-88
2022/01/29 00:35:53;;;;;;;23.67;12.75;;;0.90;99.90;;;;;;6077247;23;20148;-88
2022/01/29 00:39:12;;;;;;;22.77;12.02;;;1.00;99.90;;;;;;6067253;23;20019;-90
2022/01/29 00:42:25;;;;;;;15.00;9.83;;;1.00;99.90;;;;;;6064797;23;20319;-89
2022/01/29 00:45:25;;;;;;;21.27;12.20;;;1.00;99.90;;;;;;6065576;23;20370;-88
2022/01/29 00:48:42;;;;;;;21.75;11.50;;;1.00;99.90;;;;;;6061717;23;20801;-91
2022/01/29 00:51:43;;;;;;;;;;;;;;;;;;;;;
2022/01/29 00:54:31;;;;;;;19.58;11.73;;;0.90;99.90;;;;;;6187061;23;20356;-88
2022/01/29 00:57:40;;;;;;;;;;;;;;;;;;;;;
2022/01/29 01:01:14;;;;;;;;;;;;;;;;;;;;;
2022/01/29 01:04:13;;;;;;;20.70;10.35;;;0.90;99.90;;;;;;6186641;23;20029;-89
2022/01/29 01:07:16;;;;;;;18.60;11.25;;;0.80;99.90;;;;;;6184717;23;20029;-90
2022/01/29 01:10:12;;;;;;;19.55;10.27;;;0.80;99.90;;;;;;6201317;23;20076;-89
2022/01/29 01:13:13;;;;;;;19.05;10.68;;;0.80;99.90;;;;;;6202756;23;20013;-89
2022/01/29 01:16:15;;;;;;;17.63;11.55;;;0.80;99.90;;;;;;6187620;23;20016;-85
2022/01/29 01:19:26;;;;;;;19.48;11.85;;;0.70;99.90;;;;;;6187104;23;20056;-89
2022/01/29 01:22:46;;;;;;;23.30;11.10;;;0.70;99.90;;;;;;6166238;23;20036;-91
2022/01/29 01:25:53;;;;;;;20.50;10.55;;;0.70;99.90;;;;;;6163732;23;20035;-88
2022/01/29 01:29:02;;;;;;;20.30;10.05;;;0.80;99.90;;;;;;6183338;23;20105;-90
2022/01/29 01:31:54;;;;;;;18.40;8.95;;;0.80;99.90;;;;;;6183920;23;20024;-89
2022/01/29 01:34:52;;;;;;;14.43;9.10;;;0.80;99.90;;;;;;6167909;23;20025;-89
2022/01/29 01:37:50;;;;;;;17.70;9.18;;;0.90;99.90;;;;;;6187762;23;20045;-90
2022/01/29 01:40:48;;;;;;;16.85;9.18;;;0.90;99.90;;;;;;6169725;23;20037;-88
2022/01/29 01:44:03;;;;;;;15.07;8.27;;;0.90;99.90;;;;;;6174616;23;20017;-89
2022/01/29 01:50:36;;;;;;;15.75;7.85;;;0.90;99.90;;;;;;6186757;23;20013;-88
2022/01/29 01:53:29;;;;;;;18.55;8.60;;;0.90;99.90;;;;;;6187485;23;20036;-90
2022/01/29 01:56:42;;;;;;;13.23;8.13;;;0.90;99.90;;;;;;6187860;23;20025;-90
2022/01/29 01:59:50;;;;;;;16.52;8.32;;;0.90;99.90;;;;;;6081980;23;20043;-89
2022/01/29 02:02:43;;;;;;;14.60;7.88;;;0.90;99.90;;;;;;6098710;23;20030;-89
2022/01/29 02:05:59;;;;;;;18.23;8.13;;;0.90;99.90;;;;;;6100680;23;20037;-89
2022/01/29 02:09:22;;;;;;;15.27;8.77;;;0.90;99.90;;;;;;5989835;24;20028;-88
2022/01/29 02:12:17;;;;;;;19.75;8.73;;;0.90;99.90;;;;;;5970987;24;20092;-88
2022/01/29 02:15:23;;;;;;;20.08;9.23;;;0.90;99.90;;;;;;6003056;23;20023;-89
2022/01/29 02:18:50;;;;;;;14.23;7.90;;;0.90;99.90;;;;;;6044410;23;20034;-88
2022/01/29 02:21:50;;;;;;;14.43;8.23;;;0.90;99.90;;;;;;6037863;23;20084;-88
2022/01/29 02:24:41;;;;;;;15.32;7.47;;;0.90;99.90;;;;;;6036515;23;20310;-88
2022/01/29 02:27:41;;;;;;;18.10;8.35;;;0.90;99.90;;;;;;6165870;23;20062;-88
2022/01/29 02:30:39;;;;;;;15.38;7.15;;;0.90;99.90;;;;;;6184688;23;20111;-89
2022/01/29 02:33:37;;;;;;;16.80;7.45;;;0.90;99.90;;;;;;6185528;23;20122;-89
2022/01/29 02:36:46;;;;;;;;;;;;;;;;;;;;;
2022/01/29 02:39:54;;;;;;;16.20;7.40;;;1.00;99.90;;;;;;6171595;23;20049;-89
2022/01/29 02:43:19;;;;;;;9.68;6.60;;;1.00;99.90;;;;;;6181755;23;20043;-90
2022/01/29 02:49:07;;;;;;;13.82;7.50;;;1.00;99.90;;;;;;6190135;23;20331;-90
2022/01/29 02:52:37;;;;;;;13.68;6.07;;;0.90;99.90;;;;;;6193997;23;20025;-87
2022/01/29 02:55:40;;;;;;;13.13;7.00;;;0.90;99.90;;;;;;6189022;23;20025;-87
2022/01/29 02:58:38;;;;;;;11.43;6.97;;;0.90;99.90;;;;;;6184592;23;20025;-88
2022/01/29 03:01:40;;;;;;;;;;;;;;;;;;;;;
2022/01/29 03:04:32;;;;;;;10.82;6.82;;;0.90;99.90;;;;;;6185612;23;20111;-90
2022/01/29 03:07:34;;;;;;;;;;;;;;;;;;;;;
2022/01/29 03:11:20;;;;;;;12.90;7.10;;;0.80;99.90;;;;;;6179546;23;20025;-90
2022/01/29 03:14:36;;;;;;;13.13;6.60;;;0.80;99.90;;;;;;6169655;23;20032;-89
2022/01/29 03:17:34;;;;;;;12.48;6.80;;;0.80;99.90;;;;;;6185741;23;20112;-88
2022/01/29 03:20:38;;;;;;;9.73;6.32;;;0.90;99.90;;;;;;6183282;23;20104;-90
2022/01/29 03:23:27;;;;;;;13.93;6.47;;;0.90;99.90;;;;;;6185884;23;20029;-89
2022/01/29 03:26:35;;;;;;;13.30;6.05;;;0.90;99.90;;;;;;6167796;23;20025;-89
2022/01/29 03:29:45;;;;;;;13.60;5.90;;;0.90;99.90;;;;;;6164684;23;20028;-90
2022/01/29 03:32:33;;;;;;;9.90;5.88;;;0.90;99.90;;;;;;6183411;23;20423;-88
2022/01/29 03:35:20;;;;;;;7.97;5.63;;;1.00;99.90;;;;;;6164999;23;20194;-88
2022/01/29 03:38:13;;;;;;;9.52;5.75;;;0.90;99.90;;;;;;6186381;23;20027;-89
2022/01/29 03:41:03;;;;;;;13.85;6.00;;;1.00;99.90;;;;;;6165062;23;20035;-89
2022/01/29 03:43:53;;;;;;;13.48;6.03;;;0.90;99.90;;;;;;6187571;23;20037;-88
2022/01/29 03:47:14;;;;;;;;;;;;;;;;;;;;;
2022/01/29 03:50:36;;;;;;;;;;;;;;;;;;;;;
2022/01/29 03:53:54;;;;;;;13.38;5.85;;;1.00;99.90;;;;;;6186612;23;20021;-90
2022/01/29 03:56:42;;;;;;;9.68;4.88;;;1.00;99.90;;;;;;6195505;23;20049;-89
2022/01/29 03:59:30;;;;;;;12.32;5.80;;;1.00;99.90;;;;;;6169471;23;20025;-89
2022/01/29 04:02:45;;;;;;;9.55;5.38;;;1.00;99.90;;;;;;6167520;23;20037;-89
2022/01/29 04:05:32;;;;;;;10.38;5.47;;;1.10;99.90;;;;;;6159828;23;20124;-90
2022/01/29 04:08:42;;;;;;;11.95;5.47;;;1.10;99.90;;;;;;6184385;23;20051;-89
2022/01/29 04:11:53;;;;;;;13.52;5.50;;;1.00;99.90;;;;;;6168054;23;20444;-89
2022/01/29 04:14:46;;;;;;;11.32;4.75;;;1.10;99.90;;;;;;6163154;23;20100;-89
2022/01/29 04:17:40;;;;;;;8.18;4.95;;;1.10;99.90;;;;;;6187101;23;20081;-89
2022/01/29 04:20:51;;;;;;;;;;;;;;;;;;;;;
2022/01/29 04:23:49;;;;;;;12.13;5.22;;;1.10;99.90;;;;;;6183887;23;20025;-88
2022/01/29 04:26:51;;;;;;;10.43;5.13;;;1.10;99.90;;;;;;6185849;23;20025;-89
2022/01/29 04:30:30;;;;;;;10.63;4.80;;;1.10;99.90;;;;;;6183323;23;20158;-91
2022/01/29 04:36:22;;;;;;;10.32;4.72;;;1.10;99.90;;;;;;6185260;23;20123;-90
2022/01/29 04:39:42;;;;;;;;;;;;;;;;;;;;;
2022/01/29 04:46:21;;;;;;;7.70;4.72;;;1.10;99.90;;;;;;6181419;23;20017;-88
2022/01/29 04:49:11;;;;;;;11.38;5.18;;;1.10;99.90;;;;;;6164280;23;20036;-87
2022/01/29 04:52:06;;;;;;;12.55;5.25;;;1.00;99.90;;;;;;6186728;23;20043;-90
2022/01/29 04:58:37;;;;;;;7.28;5.10;;;0.90;99.90;;;;;;6036088;23;20155;-87
2022/01/29 05:01:39;;;;;;;;;;;;;;;;;;;;;
2022/01/29 05:08:17;;;;;;;;;;;;;;;;;;;;;
2022/01/29 05:11:48;;;;;;;;;;;;;;;;;;;;;
2022/01/29 05:15:05;;;;;;;10.93;5.07;;;1.00;99.90;;;;;;6036919;23;20031;-89
2022/01/29 05:27:25;;;;;;;9.90;5.20;;;1.00;99.90;;;;;;6184038;23;20025;-88
2022/01/29 05:30:27;;;;;;;;;;;;;;;;;;;;;
2022/01/29 05:33:20;;;;;;;7.93;4.50;;;1.00;99.90;;;;;;6187418;23;20031;-89
2022/01/29 05:36:22;;;;;;;;;;;;;;;;;;;;;
2022/01/29 05:39:31;;;;;;;13.57;5.65;;;1.00;99.90;;;;;;6183992;23;20020;-90
2022/01/29 05:42:19;;;;;;;12.93;5.47;;;1.00;99.90;;;;;;6184675;23;20056;-89
2022/01/29 05:45:30;;;;;;;6.95;4.55;;;1.00;99.90;;;;;;6162914;23;20056;-88
2022/01/29 05:48:20;;;;;;;8.93;4.93;;;1.10;99.90;;;;;;6161608;23;20029;-89
2022/01/29 05:51:10;;;;;;;9.63;4.82;;;1.10;99.90;;;;;;6182640;23;20031;-87
2022/01/29 05:54:01;;;;;;;9.98;5.22;;;1.00;99.90;;;;;;6163013;23;20056;-85
2022/01/29 06:01:36;;;;;;;8.82;4.97;;;1.00;99.90;;;;;;6184668;23;20020;-84
2022/01/29 06:05:11;;;;;;;8.05;4.43;;;1.00;99.90;;;;;;6183136;23;20108;-84
2022/01/29 06:08:05;;;;;;;8.57;4.43;;;1.10;99.90;;;;;;6184565;23;20033;-84
2022/01/29 06:10:55;;;;;;;9.15;4.68;;;1.10;99.90;;;;;;6199153;23;20411;-89
2022/01/29 06:13:52;;;;;;;9.73;4.88;;;1.20;99.90;;;;;;6174928;23;20308;-90
2022/01/29 06:17:13;;;;;;;9.38;5.00;;;1.20;99.90;;;;;;6191077;23;20052;-90
2022/01/29 06:20:34;;;;;;;7.43;4.15;;;1.20;99.90;;;;;;6186382;23;20059;-90
2022/01/29 06:32:50;;;;;;;6.82;4.45;;;1.30;99.90;;;;;;6065751;23;20334;-85
2022/01/29 06:35:40;;;;;;;7.82;4.30;;;1.30;99.90;;;;;;6008754;23;20046;-84
2022/01/29 06:38:27;;;;;;;8.20;4.88;;;1.30;99.90;;;;;;6008475;23;20028;-86
2022/01/29 06:41:16;;;;;;;6.97;4.57;;;1.30;99.90;;;;;;6048587;23;20381;-86
2022/01/29 07:09:02;;;;;;;8.57;5.07;;;1.30;99.90;;;;;;6037849;23;20011;-90
2022/01/29 07:12:23;;;;;;;7.07;5.00;;;1.30;99.90;;;;;;5958460;23;20405;-89
2022/01/29 07:16:25;;;;;;;10.45;4.93;;;1.40;99.90;;;;;;6038305;23;20111;-89
2022/01/29 07:32:33;;;;;;;8.57;5.38;;;1.40;99.90;;;;;;5876432;24;20120;-87
2022/01/29 07:35:36;;;;;;;10.98;5.63;;;1.50;99.90;;;;;;5892415;24;20048;-88
2022/01/29 07:38:44;;;;;;;9.63;5.35;;;1.50;99.90;;;;;;6073285;23;20034;-88
2022/01/29 07:46:45;;;;;;;7.80;5.10;;;1.60;99.90;;;;;;6201367;23;20068;-87
2022/01/29 07:50:39;;;;;;;10.02;6.20;;;1.60;99.90;;;;;;6111260;23;20086;-89
2022/01/29 07:54:38;;;;;;;;;;;;;;;;;;;;;
2022/01/29 07:58:36;;;;;;;;;;;;;;;;;;;;;
2022/01/29 08:09:52;;;;;;;;;;;;;;;;;;;;;
2022/01/29 08:13:32;;;;;;;;;;;;;;;;;;;;;
2022/01/29 08:17:14;;;;;;;;;;;;;;;;;;;;;
2022/01/29 08:37:03;;;;;;;;;;;;;;;;;;;;;
2022/01/29 08:40:40;;;;;;;;;;;;;;;;;;;;;
2022/01/29 08:48:27;;;;;;;;;;;;;;;;;;;;;
2022/01/29 08:56:09;;;;;;;;;;;;;;;;;;;;;
2022/01/29 09:04:18;;;;;;;;;;;;;;;;;;;;;
2022/01/29 09:12:08;;;;;;;;;;;;;;;;;;;;;
2022/01/29 09:16:09;;;;;;;17.88;8.10;;;3.20;99.90;;;;;;5947550;24;20029;-90
2022/01/29 09:32:47;;;;;;;;;;;;;;;;;;;;;
2022/01/29 09:36:22;;;;;;;;;;;;;;;;;;;;;
2022/01/29 09:40:17;;;;;;;;;;;;;;;;;;;;;
2022/01/29 10:00:18;;;;;;;;;;;;;;;;;;;;;
2022/01/29 10:04:39;;;;;;;;;;;;;;;;;;;;;
2022/01/29 10:08:28;;;;;;;11.18;7.00;;;6.70;99.90;;;;;;5960909;24;20111;-91
2022/01/29 10:12:16;;;;;;;11.93;8.10;;;7.50;99.90;;;;;;5941886;24;20068;-89
2022/01/29 10:34:23;;;;;;;15.23;7.07;;;7.90;98.70;;;;;;5623934;22;15094025;-91
2022/01/29 10:38:40;;;;;;;9.85;6.25;;;8.60;96.20;;;;;;6147954;23;20026;-88
2022/01/29 10:42:06;;;;;;;;;;;;;;;;;;;;;
2022/01/29 10:46:01;;;;;;;;;;;;;;;;;;;;;
2022/01/29 10:49:54;;;;;;;;;;;;;;;;;;;;;
2022/01/29 10:57:15;;;;;;;11.85;7.50;;;5.20;99.90;;;;;;6287807;22;20075;-86
2022/01/29 11:00:42;;;;;;;12.93;6.60;;;4.90;99.90;;;;;;6238329;23;20458;-88
2022/01/29 11:08:29;;;;;;;6.20;4.82;;;4.90;99.90;;;;;;6218070;23;20136;-89
2022/01/29 11:12:29;;;;;;;;;;;;;;;;;;;;;
2022/01/29 11:19:40;;;;;;;5.60;3.55;;;4.60;99.90;;;;;;6046308;23;20035;-91
2022/01/29 11:23:29;;;;;;;;;;;;;;;;;;;;;
2022/01/29 11:34:52;;;;;;;6.75;4.20;;;4.30;99.90;;;;;;5939155;24;20083;-90
2022/01/29 11:38:50;;;;;;;;;;;;;;;;;;;;;
2022/01/29 11:41:57;;;;;;;5.00;3.88;;;4.60;99.90;;;;;;5968094;23;20098;-89
2022/01/29 11:53:55;;;;;;;9.25;4.22;;;4.60;99.90;;;;;;6095979;23;20310;-91
2022/01/29 11:57:57;;;;;;;5.40;3.85;;;4.60;99.90;;;;;;6020585;23;20031;-90
2022/01/29 12:01:52;;;;;;;9.02;3.25;;;4.90;99.90;;;;;;6017323;23;20534;-91
2022/01/29 12:05:21;;;;;;;;;;;;;;;;;;;;;
2022/01/29 12:08:24;;;;;;;;;;;5.40;99.90;;;;;;6012566;23;20027;-90
2022/01/29 12:12:08;;;;;;;7.75;4.57;;;5.70;99.90;;;;;;6010114;23;19922;-90
2022/01/29 12:15:14;;;;;;;8.13;4.47;;;5.60;99.90;;;;;;6010841;23;20028;-90
2022/01/29 12:22:26;;;;;;;5.88;3.65;;;5.30;99.90;;;;;;6019707;23;20038;-89
2022/01/29 12:42:38;;;;;;;;;;;;;;;;;;;;;
2022/01/29 12:49:20;;;;;;;7.45;3.58;;;4.50;99.90;;;;;;6199865;23;20052;-89
2022/01/29 13:01:43;;;;;;;;;;;;;;;;;;;;;
2022/01/29 13:13:25;;;;;;;6.20;3.42;;;4.50;99.90;;;;;;6014740;23;20039;-89
2022/01/29 13:46:50;;;;;;;4.50;2.50;;;4.60;99.90;;;;;;6037131;23;20013;-89
2022/01/29 13:49:49;;;;;;;4.22;2.88;;;4.60;99.90;;;;;;6014657;23;20107;-89
2022/01/29 13:53:42;;;;;;;5.22;3.10;;;4.60;99.90;;;;;;5929286;24;20053;-89
2022/01/29 13:57:30;;;;;;;;;;;;;;;;;;;;;
2022/01/29 14:01:21;;;;;;;4.82;2.97;;;4.60;99.90;;;;;;5993350;23;20424;-92
2022/01/29 14:04:49;;;;;;;5.10;3.55;;;4.60;99.90;;;;;;5999641;23;20064;-90
2022/01/29 14:12:25;;;;;;;10.00;3.65;;;4.50;99.90;;;;;;5960925;24;20029;-89
2022/01/29 14:15:50;;;;;;;;;;;;;;;;;;;;;
2022/01/29 14:55:01;;;;;;;6.03;4.55;;;4.30;99.90;;;;;;6320177;22;20192;-89
2022/01/29 15:03:02;;;;;;;;;;;;;;;;;;;;;
2022/01/29 15:07:10;;;;;;;;;;;;;;;;;;;;;
2022/01/29 15:13:53;;;;;;;6.75;4.07;;;4.20;99.90;;;;;;6054643;23;20057;-86
2022/01/29 15:16:49;;;;;;;8.00;4.85;;;4.30;99.90;;;;;;6081504;23;20033;-89
2022/01/29 15:19:37;;;;;;;6.38;3.78;;;4.30;99.90;;;;;;6079850;23;20145;-88
2022/01/29 15:22:33;;;;;;;5.30;3.63;;;4.30;99.90;;;;;;6100421;23;20026;-87
2022/01/29 15:25:27;;;;;;;6.50;4.13;;;4.30;99.90;;;;;;6082936;23;20348;-87
2022/01/29 15:28:17;;;;;;;10.60;4.47;;;4.20;99.90;;;;;;6099451;23;20034;-87
2022/01/29 15:31:09;;;;;;;13.77;6.93;;;4.20;99.90;;;;;;6109376;23;20034;-86
2022/01/29 15:33:59;;;;;;;9.00;5.55;;;4.20;99.90;;;;;;6091797;23;20034;-88
2022/01/29 15:36:46;;;;;;;13.43;6.47;;;4.20;99.90;;;;;;6248765;23;20028;-88
2022/01/29 15:39:34;;;;;;;9.82;4.32;;;4.10;99.90;;;;;;6233189;23;20355;-87
2022/01/29 15:42:41;;;;;;;8.93;4.53;;;4.10;99.90;;;;;;6302401;22;20106;-88
2022/01/29 15:45:31;;;;;;;6.32;4.35;;;4.10;99.90;;;;;;6316528;22;20334;-86
2022/01/29 15:48:20;;;;;;;8.80;5.70;;;4.10;99.90;;;;;;6295686;22;20030;-86
2022/01/29 15:51:09;;;;;;;8.07;5.32;;;4.10;99.90;;;;;;6301408;22;20084;-86
2022/01/29 15:53:57;;;;;;;7.93;5.38;;;4.10;99.90;;;;;;6316418;22;20043;-87
2022/01/29 15:56:44;;;;;;;8.48;5.55;;;4.00;99.90;;;;;;6338326;22;20435;-88
2022/01/29 15:59:32;;;;;;;8.63;4.97;;;4.00;99.90;;;;;;6318531;22;20430;-86
2022/01/29 16:02:24;;;;;;;9.52;5.15;;;4.00;99.90;;;;;;6341304;22;20112;-88
2022/01/29 16:05:13;;;;;;;8.35;4.68;;;4.00;99.90;;;;;;6341286;22;20019;-89
2022/01/29 16:08:03;;;;;;;8.35;4.70;;;4.00;99.90;;;;;;6341986;22;20076;-86
2022/01/29 16:10:57;;;;;;;9.40;4.88;;;4.00;99.90;;;;;;6338848;22;20271;-87
2022/01/29 16:13:45;;;;;;;6.88;4.68;;;4.00;99.90;;;;;;6344102;22;20084;-86
2022/01/29 16:16:32;;;;;;;14.15;7.60;;;4.00;99.90;;;;;;6324900;22;20048;-87
2022/01/29 16:19:22;;;;;;;6.25;4.18;;;4.00;99.90;;;;;;6348230;22;20015;-89
2022/01/29 16:22:47;;;;;;;8.52;5.15;;;4.00;99.90;;;;;;6336284;22;20615;-86
2022/01/29 16:46:34;;;;;;;5.38;3.75;;;4.00;99.90;;;;;;6182333;23;20009;-88
2022/01/29 16:50:24;;;;;;;6.82;4.35;;;4.00;99.90;;;;;;6152591;23;20432;-89
2022/01/29 16:54:20;;;;;;;7.35;4.38;;;4.00;99.90;;;;;;5985629;23;20106;-89
2022/01/29 17:01:38;;;;;;;5.35;3.50;;;4.00;99.90;;;;;;6005106;23;20015;-87
2022/01/29 17:05:00;;;;;;;9.18;4.45;;;3.90;99.90;;;;;;6007345;23;20060;-88
2022/01/29 17:12:17;;;;;;;7.45;4.43;;;3.90;99.90;;;;;;6090761;23;21073;-90
2022/01/29 17:19:57;;;;;;;5.13;3.33;;;4.10;99.90;;;;;;6028844;23;20170;-88
2022/01/29 17:22:56;;;;;;;4.50;3.67;;;4.20;99.90;;;;;;6092438;23;20405;-88
2022/01/29 17:26:32;;;;;;;3.50;2.90;;;4.40;99.90;;;;;;6092860;23;20243;-88
2022/01/29 18:02:21;;;;;;;3.60;3.03;;;4.60;99.90;;;;;;6132706;23;20093;-90
2022/01/29 18:13:56;;;;;;;;;;;;;;;;;;;;;
2022/01/29 18:22:18;;;;;;;;;;;;;;;;;;;;;
2022/01/29 18:26:06;;;;;;;;;;;;;;;;;;;;;
2022/01/29 18:33:35;;;;;;;2.15;1.70;;;4.90;99.90;;;;;;6029721;23;20067;-90
2022/01/29 18:36:57;;;;;;;2.03;1.63;;;5.00;99.90;;;;;;6099009;23;20026;-89
2022/01/29 18:52:16;;;;;;;3.60;2.00;;;5.10;99.90;;;;;;6143529;23;20087;-90
2022/01/29 19:17:01;;;;;;;2.35;1.60;;;5.20;99.90;;;;;;5958358;24;20107;-91
2022/01/29 19:20:13;;;;;;;2.33;1.75;;;5.20;99.90;;;;;;5870716;24;20069;-87
2022/01/29 19:23:47;;;;;;;1.88;1.73;;;5.20;99.90;;;;;;5819064;24;20087;-83
2022/01/29 19:26:36;;;;;;;1.67;1.58;;;5.20;99.90;;;;;;5776413;24;20416;-93
2022/01/29 19:29:32;;;;;;;;;;;;;;;;;;;;;
2022/01/29 19:37:08;;;;;;;;;;;;;;;;;;;;;
2022/01/29 19:41:03;;;;;;;;;;;;;;;;;;;;;
2022/01/29 19:44:47;;;;;;;;;;;;;;;;;;;;;
2022/01/29 19:48:11;;;;;;;2.17;1.85;;;5.20;99.90;;;;;;6062109;23;20070;-90
2022/01/29 19:52:07;;;;;;;2.20;1.90;;;5.10;99.90;;;;;;6101660;23;20046;-91
2022/01/29 19:58:27;;;;;;;1.40;1.30;;;5.10;99.90;;;;;;6267155;22;20099;-89
2022/01/29 20:10:23;;;;;;;;;;;;;;;;;;;;;
2022/01/29 20:17:32;;;;;;;4.15;1.95;;;4.90;99.90;;;;;;6007972;23;20107;-91
2022/01/29 20:20:58;;;;;;;;;;;;;;;;;;;;;
2022/01/29 20:28:46;;;;;;;;;;;;;;;;;;;;;
2022/01/29 20:32:40;;;;;;;;;;;;;;;;;;;;;
2022/01/29 20:35:50;;;;;;;3.17;2.55;;;4.40;99.90;;;;;;6061297;23;20316;-92
2022/01/29 20:38:51;;;;;;;3.22;2.45;;;4.40;99.90;;;;;;6068696;23;20022;-91
2022/01/29 20:42:47;;;;;;;;;;;;;;;;;;;;;
2022/01/29 20:45:49;;;;;;;8.25;3.70;;;4.40;99.90;;;;;;5963395;23;20095;-91
2022/01/29 20:49:20;;;;;;;5.38;3.05;;;4.30;99.90;;;;;;6042428;23;20131;-91
2022/01/29 20:55:48;;;;;;;2.72;1.98;;;4.30;99.90;;;;;;6087473;23;20059;-91
2022/01/29 20:59:56;;;;;;;;;;;;;;;;;;;;;
2022/01/29 21:03:46;;;;;;;;;;;;;;;;;;;;;
2022/01/29 21:10:58;;;;;;;2.03;1.83;;;4.00;99.90;;;;;;5963733;23;20442;-90
2022/01/29 21:14:24;;;;;;;4.00;2.08;;;4.00;99.90;;;;;;5981558;24;20436;-90
2022/01/29 21:17:39;;;;;;;2.20;2.00;;;3.90;99.90;;;;;;6064072;23;20046;-87
2022/01/29 21:24:16;;;;;;;;;;;;;;;;;;;;;
2022/01/29 21:27:27;;;;;;;3.03;2.30;;;3.80;99.90;;;;;;6073503;23;20030;-89
2022/01/29 21:30:31;;;;;;;2.28;1.90;;;3.80;99.90;;;;;;6118444;23;20034;-88
2022/01/29 21:33:52;;;;;;;4.60;2.58;;;3.80;99.90;;;;;;6126086;23;20022;-88
2022/01/29 21:37:08;;;;;;;3.60;2.35;;;3.80;99.90;;;;;;6124229;23;20037;-91
2022/01/29 21:40:23;;;;;;;4.05;2.90;;;3.80;99.90;;;;;;6190586;23;20102;-89
2022/01/29 21:43:21;;;;;;;3.42;2.47;;;3.80;99.90;;;;;;6225072;23;20099;-88
2022/01/29 21:46:08;;;;;;;3.53;2.60;;;3.70;99.90;;;;;;6243234;23;20034;-88
2022/01/29 21:53:21;;;;;;;3.20;2.67;;;3.70;99.90;;;;;;6118823;23;20338;-88
2022/01/29 21:57:14;;;;;;;10.25;6.25;;;3.70;99.90;;;;;;6124459;23;20028;-90
2022/01/29 22:04:45;;;;;;;10.93;5.32;;;3.80;99.90;;;;;;6120703;23;20298;-91
2022/01/29 22:08:02;;;;;;;6.85;3.55;;;3.80;99.90;;;;;;6128969;23;20038;-89
2022/01/29 22:11:37;;;;;;;;;;;;;;;;;;;;;
2022/01/29 22:15:26;;;;;;;6.25;3.85;;;3.80;99.90;;;;;;6130592;23;20025;-89
2022/01/29 22:18:29;;;;;;;3.95;2.72;;;3.80;99.90;;;;;;6105329;23;20428;-90
2022/01/29 22:22:01;;;;;;;2.95;2.63;;;3.80;99.90;;;;;;6136019;23;20053;-89
2022/01/29 22:25:10;;;;;;;3.65;3.15;;;3.80;99.90;;;;;;6259216;22;20127;-90
2022/01/29 22:28:03;;;;;;;3.15;2.85;;;3.80;99.90;;;;;;6247392;23;20024;-91
2022/01/29 22:30:55;;;;;;;3.35;2.88;;;3.70;99.90;;;;;;6294885;22;20026;-88
2022/01/29 22:38:18;;;;;;;2.90;2.60;;;3.80;99.90;;;;;;6360181;22;20015;-87
2022/01/29 22:41:28;;;;;;;3.92;3.53;;;3.80;99.90;;;;;;6359518;22;20050;-88
2022/01/29 22:44:35;;;;;;;4.35;3.35;;;3.80;99.90;;;;;;6338255;22;20125;-89
2022/01/29 22:47:49;;;;;;;3.10;2.80;;;3.80;99.90;;;;;;6333575;22;20031;-90
2022/01/29 23:10:53;;;;;;;;;;;;;;;;;;;;;
2022/01/29 23:13:56;;;;;;;;;;;;;;;;;;;;;
2022/01/29 23:17:06;;;;;;;6.93;3.67;;;3.80;99.90;;;;;;6072818;23;20035;-88
2022/01/29 23:24:11;;;;;;;4.00;3.60;;;3.90;99.90;;;;;;6122453;23;20030;-87
2022/01/29 23:27:23;;;;;;;6.68;3.95;;;3.90;99.90;;;;;;6108889;23;20049;-90
2022/01/29 23:30:28;;;;;;;2.50;2.30;;;3.80;99.90;;;;;;6111672;23;20048;-90
2022/01/29 23:36:55;;;;;;;6.70;3.78;;;3.80;99.90;;;;;;6187334;23;20099;-87
2022/01/29 23:40:34;;;;;;;3.15;2.58;;;3.80;99.90;;;;;;6200545;22;20043;-89
2022/01/29 23:43:48;;;;;;;;;;;;;;;;;;;;;
2022/01/29 23:50:58;;;;;;;4.60;2.70;;;4.00;99.90;;;;;;6342242;22;20034;-89
2022/01/29 23:53:59;;;;;;;3.00;2.38;;;4.00;99.90;;;;;;6345969;22;20027;-86
2022/01/29 23:56:51;;;;;;;8.93;3.35;;;4.00;99.90;;;;;;6344602;22;20033;-89
2022/01/29 23:59:40;;;;;;;2.22;2.03;;;4.00;99.90;;;;;;6344698;22;20104;-89
